createdAt,value
2018-06-09T00:00:22.946Z,6.87
2018-06-09T00:03:02.288Z,7.40
2018-06-09T00:05:42.027Z,7.80
2018-06-09T00:08:23.070Z,8.40
2018-06-09T00:11:02.787Z,9.03
2018-06-09T00:13:45.397Z,9.27
2018-06-09T00:16:25.518Z,8.07
2018-06-09T00:19:10.586Z,7.60
2018-06-09T00:21:55.248Z,7.50
2018-06-09T00:24:38.720Z,7.83
2018-06-09T00:27:20.649Z,7.47
2018-06-09T00:30:08.227Z,7.13
2018-06-09T00:32:57.986Z,7.50
2018-06-09T00:35:39.776Z,8.03
2018-06-09T00:38:20.337Z,8.97
2018-06-09T00:41:03.347Z,7.77
2018-06-09T00:43:45.378Z,8.77
2018-06-09T00:46:28.578Z,7.50
2018-06-09T00:49:09.997Z,8.30
2018-06-09T00:51:50.978Z,7.60
2018-06-09T00:54:33.547Z,8.90
2018-06-09T00:57:15.339Z,7.97
2018-06-09T00:59:58.778Z,8.00
2018-06-09T01:02:39.788Z,8.10
2018-06-09T01:05:20.768Z,8.13
2018-06-09T01:08:04.556Z,12.87
2018-06-09T01:10:46.351Z,8.17
2018-06-09T01:13:29.370Z,8.80
2018-06-09T01:16:09.937Z,9.57
2018-06-09T01:18:52.957Z,8.83
2018-06-09T01:21:38.439Z,8.87
2018-06-09T01:24:17.360Z,8.67
2018-06-09T01:26:58.737Z,8.80
2018-06-09T01:29:39.347Z,8.67
2018-06-09T01:32:27.247Z,8.73
2018-06-09T01:35:06.997Z,8.27
2018-06-09T01:37:48.000Z,8.20
2018-06-09T01:40:30.966Z,8.17
2018-06-09T01:43:15.236Z,8.43
2018-06-09T01:45:59.066Z,9.00
2018-06-09T01:48:44.137Z,8.80
2018-06-09T01:51:31.686Z,8.87
2018-06-09T01:54:16.730Z,10.17
2018-06-09T01:56:58.725Z,10.53
2018-06-09T01:59:39.504Z,10.10
2018-06-09T02:02:24.984Z,9.93
2018-06-09T02:05:06.076Z,11.67
2018-06-09T02:07:48.966Z,10.73
2018-06-09T02:10:29.534Z,12.43
2018-06-09T02:13:11.696Z,11.50
2018-06-09T02:15:51.885Z,11.37
2018-06-09T02:18:32.456Z,11.53
2018-06-09T02:21:14.256Z,12.93
2018-06-09T02:23:56.865Z,12.10
2018-06-09T02:26:37.827Z,12.53
2018-06-09T02:29:17.538Z,12.37
2018-06-09T02:31:59.775Z,12.00
2018-06-09T02:34:40.566Z,12.20
2018-06-09T02:37:28.928Z,13.10
2018-06-09T02:40:10.894Z,13.47
2018-06-09T02:42:53.057Z,14.07
2018-06-09T02:45:38.958Z,12.73
2018-06-09T02:48:22.455Z,13.80
2018-06-09T02:51:03.552Z,13.90
2018-06-09T02:53:46.391Z,12.50
2018-06-09T02:56:26.996Z,13.57
2018-06-09T02:59:13.107Z,14.10
2018-06-09T03:01:58.737Z,15.27
2018-06-09T03:04:45.936Z,13.47
2018-06-09T03:07:26.825Z,13.47
2018-06-09T03:10:09.966Z,12.57
2018-06-09T03:12:48.547Z,12.87
2018-06-09T03:15:30.155Z,12.73
2018-06-09T03:36:11.936Z,10.03
2018-06-09T03:39:03.266Z,10.73
2018-06-09T03:41:44.667Z,10.17
2018-06-09T03:44:25.410Z,10.40
2018-06-09T03:47:04.967Z,10.43
2018-06-09T03:49:53.737Z,10.20
2018-06-09T03:52:39.976Z,9.63
2018-06-09T03:55:26.726Z,9.53
2018-06-09T03:58:06.487Z,9.80
2018-06-09T04:00:49.086Z,9.53
2018-06-09T04:03:31.047Z,8.97
2018-06-09T04:06:12.437Z,8.83
2018-06-09T04:09:04.087Z,9.87
2018-06-09T04:12:00.031Z,9.83
2018-06-09T04:14:47.526Z,9.70
2018-06-09T04:17:36.296Z,9.70
2018-06-09T04:20:17.676Z,9.53
2018-06-09T04:22:57.437Z,9.27
2018-06-09T04:25:40.446Z,9.20
2018-06-09T04:28:23.608Z,9.77
2018-06-09T04:31:08.577Z,9.57
2018-06-09T04:33:49.916Z,9.63
2018-06-09T04:36:30.107Z,8.83
2018-06-09T04:39:18.618Z,9.47
2018-06-09T04:42:01.258Z,9.23
2018-06-09T04:44:48.146Z,9.30
2018-06-09T04:47:32.407Z,9.13
2018-06-09T04:50:20.708Z,9.23
2018-06-09T04:53:07.450Z,9.03
2018-06-09T04:55:52.707Z,8.20
2018-06-09T04:58:34.729Z,8.87
2018-06-09T05:01:19.767Z,8.00
2018-06-09T05:04:02.156Z,7.90
2018-06-09T05:06:47.517Z,8.07
2018-06-09T05:09:30.270Z,8.20
2018-06-09T05:12:09.590Z,7.80
2018-06-09T05:14:52.438Z,6.87
2018-06-09T05:17:39.559Z,6.57
2018-06-09T05:20:24.626Z,6.87
2018-06-09T05:23:08.868Z,6.23
2018-06-09T05:25:51.928Z,5.93
2018-06-09T05:28:35.327Z,5.70
2018-06-09T05:31:18.113Z,6.10
2018-06-09T05:34:05.039Z,6.00
2018-06-09T05:36:46.438Z,5.83
2018-06-09T05:39:27.408Z,6.22
2018-06-09T05:42:09.407Z,5.85
2018-06-09T05:44:51.198Z,5.87
2018-06-09T05:47:36.268Z,6.30
2018-06-09T05:50:25.408Z,6.10
2018-06-09T05:53:07.768Z,5.87
2018-06-09T05:55:48.607Z,5.50
2018-06-09T05:58:31.627Z,6.45
2018-06-09T06:01:13.157Z,6.28
2018-06-09T06:22:14.395Z,7.10
2018-06-09T06:24:50.189Z,7.03
2018-06-09T06:27:20.063Z,7.07
2018-06-09T06:29:49.804Z,6.57
2018-06-09T06:32:19.423Z,6.97
2018-06-09T06:34:49.182Z,6.47
2018-06-09T06:37:18.808Z,6.40
2018-06-09T06:39:48.535Z,6.87
2018-06-09T06:42:18.165Z,7.27
2018-06-09T06:44:47.766Z,6.93
2018-06-09T06:47:17.191Z,6.57
2018-06-09T06:49:47.025Z,6.77
2018-06-09T06:52:16.665Z,6.70
2018-06-09T06:54:46.286Z,7.13
2018-06-09T06:57:15.833Z,7.37
2018-06-09T06:59:45.533Z,7.23
2018-06-09T07:02:15.073Z,7.13
2018-06-09T07:04:44.549Z,7.77
2018-06-09T07:07:14.373Z,6.97
2018-06-09T07:09:43.934Z,7.13
2018-06-09T07:12:13.568Z,7.67
2018-06-09T07:14:43.023Z,6.93
2018-06-09T07:17:12.545Z,6.83
2018-06-09T07:19:42.046Z,7.00
2018-06-09T07:22:11.865Z,6.80
2018-06-09T07:24:41.465Z,6.70
2018-06-09T07:27:11.025Z,6.93
2018-06-09T07:29:40.593Z,7.10
2018-06-09T07:32:10.193Z,6.70
2018-06-09T07:34:39.628Z,6.70
2018-06-09T07:37:09.220Z,6.90
2018-06-09T07:39:38.735Z,7.13
2018-06-09T07:42:08.267Z,6.57
2018-06-09T07:44:37.786Z,6.73
2018-06-09T07:47:07.020Z,6.80
2018-06-09T07:49:36.759Z,6.70
2018-06-09T07:52:06.659Z,6.87
2018-06-09T07:54:36.226Z,7.00
2018-06-09T07:57:05.660Z,6.30
2018-06-09T07:59:35.015Z,6.53
2018-06-09T08:02:04.515Z,6.63
2018-06-09T08:04:34.212Z,9.20
2018-06-09T08:07:03.412Z,8.30
2018-06-09T08:09:33.274Z,7.43
2018-06-09T08:12:02.989Z,7.03
2018-06-09T08:14:32.455Z,6.80
2018-06-09T08:17:02.075Z,6.80
2018-06-09T08:19:32.659Z,7.40
2018-06-09T08:22:02.376Z,7.30
2018-06-09T08:24:31.577Z,6.80
2018-06-09T08:27:01.153Z,6.97
2018-06-09T08:29:30.522Z,6.40
2018-06-09T08:32:00.029Z,7.13
2018-06-09T08:34:29.863Z,6.97
2018-06-09T08:36:59.463Z,7.07
2018-06-09T08:39:29.173Z,6.53
2018-06-09T08:41:58.740Z,7.53
2018-06-09T08:44:28.855Z,6.87
2018-06-09T08:46:58.234Z,7.50
2018-06-09T08:49:27.246Z,7.80
2018-06-09T08:51:56.687Z,7.17
2018-06-09T08:54:26.387Z,7.47
2018-06-09T08:56:55.883Z,7.30
2018-06-09T08:59:25.527Z,7.43
2018-06-09T09:01:55.510Z,7.27
2018-06-09T09:04:25.248Z,8.10
2018-06-09T09:06:54.754Z,7.67
2018-06-09T09:09:24.295Z,6.93
2018-06-09T09:11:54.155Z,7.87
2018-06-09T09:14:23.652Z,6.63
2018-06-09T09:16:53.353Z,6.90
2018-06-09T09:19:22.968Z,6.90
2018-06-09T09:21:52.614Z,7.00
2018-06-09T09:24:22.271Z,7.37
2018-06-09T09:26:52.010Z,6.57
2018-06-09T09:29:21.487Z,7.37
2018-06-09T09:31:50.867Z,8.03
2018-06-09T09:34:20.107Z,6.53
2018-06-09T09:36:49.585Z,6.90
2018-06-09T09:39:19.465Z,7.00
2018-06-09T09:41:49.112Z,8.10
2018-06-09T09:44:18.839Z,6.83
2018-06-09T09:46:48.338Z,7.10
2018-06-09T09:49:17.831Z,6.87
2018-06-09T09:51:47.391Z,6.70
2018-06-09T09:54:16.973Z,6.47
2018-06-09T09:56:46.609Z,6.90
2018-06-09T09:59:16.396Z,6.23
2018-06-09T10:01:46.479Z,6.75
2018-06-09T10:04:15.932Z,6.63
2018-06-09T10:06:45.211Z,5.93
2018-06-09T10:09:14.766Z,6.37
2018-06-09T10:11:43.877Z,7.00
2018-06-09T10:14:13.642Z,6.57
2018-06-09T10:16:43.403Z,6.47
2018-06-09T10:19:12.749Z,6.55
2018-06-09T10:21:42.221Z,7.20
2018-06-09T10:24:11.961Z,6.87
2018-06-09T10:26:41.490Z,7.28
2018-06-09T10:29:11.154Z,6.80
2018-06-09T10:31:40.544Z,6.40
2018-06-09T10:34:10.174Z,6.83
2018-06-09T10:36:39.815Z,6.57
2018-06-09T10:39:09.454Z,6.30
2018-06-09T10:41:39.015Z,6.37
2018-06-09T10:44:08.656Z,6.83
2018-06-09T10:46:38.154Z,6.30
2018-06-09T10:49:07.817Z,6.58
2018-06-09T10:51:37.426Z,7.33
2018-06-09T10:54:06.783Z,6.65
2018-06-09T10:56:36.552Z,6.87
2018-06-09T10:59:06.449Z,6.65
2018-06-09T11:01:36.001Z,6.90
2018-06-09T11:04:05.761Z,6.85
2018-06-09T11:06:35.168Z,6.58
2018-06-09T11:09:06.901Z,6.20
2018-06-09T11:11:36.539Z,6.45
2018-06-09T11:14:06.041Z,7.03
2018-06-09T11:16:35.570Z,6.55
2018-06-09T11:19:04.910Z,7.40
2018-06-09T11:21:34.431Z,6.40
2018-06-09T11:24:03.855Z,7.47
2018-06-09T11:26:33.633Z,7.03
2018-06-09T11:29:03.980Z,7.83
2018-06-09T11:31:33.394Z,7.03
2018-06-09T11:34:03.012Z,6.47
2018-06-09T11:36:32.577Z,6.33
2018-06-09T11:39:02.129Z,6.87
2018-06-09T11:41:31.831Z,6.00
2018-06-09T11:44:01.793Z,6.50
2018-06-09T11:46:31.387Z,6.15
2018-06-09T11:49:01.868Z,6.10
2018-06-09T11:51:31.205Z,6.30
2018-06-09T11:54:00.748Z,6.75
2018-06-09T11:56:30.307Z,9.33
2018-06-09T11:58:59.887Z,6.37
2018-06-09T12:01:29.387Z,6.47
2018-06-09T12:03:59.282Z,6.87
2018-06-09T12:06:28.689Z,5.70
2018-06-09T12:08:58.632Z,6.83
2018-06-09T12:11:28.070Z,6.05
2018-06-09T12:13:57.023Z,14.95
2018-06-09T12:16:26.652Z,14.63
2018-06-09T12:18:56.153Z,11.90
2018-06-09T12:21:25.748Z,14.03
2018-06-09T12:23:55.306Z,10.40
2018-06-09T12:26:24.772Z,11.83
2018-06-09T12:28:54.245Z,6.75
2018-06-09T12:31:23.745Z,6.72
2018-06-09T12:33:53.012Z,5.92
2018-06-09T12:36:22.407Z,10.55
2018-06-09T12:38:52.108Z,6.83
2018-06-09T12:41:22.108Z,14.23
2018-06-09T12:43:52.113Z,6.70
2018-06-09T12:46:21.993Z,6.87
2018-06-09T12:48:51.243Z,9.23
2018-06-09T12:51:20.832Z,10.68
2018-06-09T12:53:50.273Z,6.95
2018-06-09T12:56:19.494Z,6.72
2018-06-09T12:58:49.073Z,6.85
2018-06-09T13:01:18.592Z,6.25
2018-06-09T13:03:48.484Z,6.03
2018-06-09T13:06:18.381Z,8.18
2018-06-09T13:08:47.902Z,6.00
2018-06-09T13:11:17.360Z,5.97
2018-06-09T13:13:47.201Z,5.65
2018-06-09T13:16:16.901Z,13.00
2018-06-09T13:18:46.141Z,6.80
2018-06-09T13:21:15.941Z,5.80
2018-06-09T13:23:45.412Z,6.03
2018-06-09T13:26:14.955Z,6.00
2018-06-09T13:28:44.445Z,4.72
2018-06-09T13:31:13.965Z,6.62
2018-06-09T13:33:43.605Z,5.40
2018-06-09T13:36:13.386Z,5.72
2018-06-09T13:38:43.099Z,6.35
2018-06-09T13:41:12.666Z,7.22
2018-06-09T13:43:42.438Z,5.53
2018-06-09T13:46:12.005Z,10.35
2018-06-09T13:48:41.636Z,12.33
2018-06-09T13:51:11.236Z,5.42
2018-06-09T13:53:40.796Z,11.40
2018-06-09T13:56:10.205Z,21.90
2018-06-09T13:58:39.516Z,14.15
2018-06-09T14:01:09.086Z,5.58
2018-06-09T14:03:38.554Z,6.03
2018-06-09T14:06:08.111Z,4.97
2018-06-09T14:08:37.599Z,5.70
2018-06-09T14:11:07.496Z,5.20
2018-06-09T14:13:37.125Z,12.25
2018-06-09T14:16:06.636Z,9.03
2018-06-09T14:21:20.400Z,6.75
2018-06-09T14:23:50.072Z,6.60
2018-06-09T14:26:19.750Z,7.72
2018-06-09T14:28:49.270Z,6.92
2018-06-09T14:31:18.345Z,5.58
2018-06-09T14:33:47.968Z,5.78
2018-06-09T14:36:17.666Z,5.67
2018-06-09T14:38:47.468Z,5.35
2018-06-09T14:41:17.544Z,5.10
2018-06-09T14:43:47.076Z,5.12
2018-06-09T14:46:16.553Z,5.17
2018-06-09T14:48:46.112Z,5.50
2018-06-09T14:51:15.732Z,5.67
2018-06-09T14:53:45.351Z,5.45
2018-06-09T14:56:15.047Z,5.62
2018-06-09T14:58:44.253Z,5.55
2018-06-09T15:01:13.806Z,5.55
2018-06-09T15:03:43.346Z,5.33
2018-06-09T15:06:12.890Z,5.45
2018-06-09T15:08:42.795Z,5.75
2018-06-09T15:11:12.352Z,4.95
2018-06-09T15:13:41.746Z,5.20
2018-06-09T15:16:11.272Z,6.80
2018-06-09T15:18:41.307Z,5.28
2018-06-09T15:21:10.904Z,5.05
2018-06-09T15:23:40.340Z,5.08
2018-06-09T15:26:10.523Z,5.55
2018-06-09T15:28:40.188Z,5.40
2018-06-09T15:31:09.993Z,5.30
2018-06-09T15:33:39.568Z,5.05
2018-06-09T15:36:09.207Z,5.75
2018-06-09T15:38:38.659Z,5.30
2018-06-09T15:41:08.199Z,5.80
2018-06-09T15:43:37.979Z,4.80
2018-06-09T15:46:07.609Z,5.35
2018-06-09T15:48:36.854Z,5.83
2018-06-09T15:51:06.679Z,5.12
2018-06-09T15:53:36.290Z,5.05
2018-06-09T15:56:05.786Z,5.78
2018-06-09T15:58:35.545Z,6.33
2018-06-09T16:01:04.877Z,5.78
2018-06-09T16:03:34.474Z,5.40
2018-06-09T16:06:03.959Z,4.90
2018-06-09T16:08:33.299Z,4.80
2018-06-09T16:11:02.783Z,4.97
2018-06-09T16:13:32.367Z,4.70
2018-06-09T16:16:02.198Z,6.27
2018-06-09T16:18:31.732Z,5.60
2018-06-09T16:21:01.333Z,6.60
2018-06-09T16:23:30.913Z,6.60
2018-06-09T16:26:00.374Z,6.37
2018-06-09T16:28:29.922Z,6.27
2018-06-09T16:30:59.475Z,6.57
2018-06-09T16:33:28.968Z,6.23
2018-06-09T16:35:58.190Z,7.43
2018-06-09T16:38:27.408Z,7.80
2018-06-09T16:40:56.748Z,8.53
2018-06-09T16:43:26.250Z,7.73
2018-06-09T16:45:55.807Z,8.13
2018-06-09T16:48:25.346Z,9.23
2018-06-09T16:50:54.937Z,10.20
2018-06-09T16:53:24.749Z,14.53
2018-06-09T16:55:54.155Z,11.13
2018-06-09T16:58:23.590Z,8.20
2018-06-09T17:00:53.073Z,9.23
2018-06-09T17:03:22.349Z,8.67
2018-06-09T17:05:52.049Z,7.93
2018-06-09T17:08:21.870Z,8.67
2018-06-09T17:10:51.542Z,8.73
2018-06-09T17:13:20.714Z,8.70
2018-06-09T17:15:50.271Z,8.67
2018-06-09T17:18:19.966Z,9.83
2018-06-09T17:20:49.345Z,9.50
2018-06-09T17:23:18.950Z,9.30
2018-06-09T17:25:48.507Z,11.70
2018-06-09T17:28:18.045Z,9.50
2018-06-09T17:30:47.568Z,10.27
2018-06-09T17:33:17.249Z,11.67
2018-06-09T17:35:46.694Z,10.87
2018-06-09T17:38:16.269Z,15.87
2018-06-09T17:40:45.906Z,14.37
2018-06-09T17:43:15.470Z,13.83
2018-06-09T17:45:47.064Z,13.47
2018-06-09T17:48:16.720Z,12.33
2018-06-09T17:50:46.240Z,16.60
2018-06-09T17:53:15.876Z,16.63
2018-06-09T17:55:45.174Z,15.70
2018-06-09T17:58:14.913Z,15.40
2018-06-09T18:00:44.585Z,14.90
2018-06-09T18:03:14.291Z,16.13
2018-06-09T18:05:43.918Z,12.83
2018-06-09T18:08:13.817Z,12.63
2018-06-09T18:10:43.438Z,14.00
2018-06-09T18:13:12.762Z,13.33
2018-06-09T18:15:42.774Z,13.23
2018-06-09T18:18:12.564Z,13.63
2018-06-09T18:20:41.918Z,13.17
2018-06-09T18:23:11.493Z,14.03
2018-06-09T18:25:41.107Z,14.40
2018-06-09T18:28:10.612Z,14.40
2018-06-09T18:30:40.114Z,15.30
2018-06-09T18:33:09.780Z,14.87
2018-06-09T18:35:39.399Z,15.40
2018-06-09T18:38:09.039Z,16.30
2018-06-09T18:40:38.880Z,15.20
2018-06-09T18:43:08.440Z,16.07
2018-06-09T18:45:38.099Z,15.23
2018-06-09T18:48:07.460Z,16.07
2018-06-09T18:50:37.020Z,16.17
2018-06-09T18:53:07.081Z,16.87
2018-06-09T18:55:36.859Z,15.80
2018-06-09T18:58:06.630Z,15.17
2018-06-09T19:00:36.313Z,16.40
2018-06-09T19:03:06.090Z,15.90
2018-06-09T19:05:35.871Z,17.20
2018-06-09T19:08:05.629Z,16.80
2018-06-09T19:10:35.229Z,16.77
2018-06-09T19:13:04.850Z,19.10
2018-06-09T19:15:34.349Z,16.93
2018-06-09T19:18:04.209Z,10.27
2018-06-09T19:20:34.490Z,8.90
2018-06-09T19:23:04.270Z,8.53
2018-06-09T19:25:34.195Z,8.70
2018-06-09T19:28:04.689Z,8.57
2018-06-09T19:30:34.369Z,8.47
2018-06-09T19:33:04.010Z,8.37
2018-06-09T19:35:33.230Z,10.57
2018-06-09T19:38:02.870Z,11.53
2018-06-09T19:40:32.430Z,17.80
2018-06-09T19:43:02.190Z,18.97
2018-06-09T19:45:31.755Z,12.67
2018-06-09T19:48:01.856Z,12.10
2018-06-09T19:50:31.494Z,15.97
2018-06-09T19:53:01.014Z,9.97
2018-06-09T19:55:30.586Z,13.10
2018-06-09T19:58:00.246Z,10.63
2018-06-09T20:00:30.209Z,8.90
2018-06-09T20:03:00.145Z,7.93
2018-06-09T20:05:29.965Z,8.33
2018-06-09T20:08:00.086Z,8.50
2018-06-09T20:10:30.082Z,9.23
2018-06-09T20:12:59.944Z,8.57
2018-06-09T20:15:29.919Z,8.00
2018-06-09T20:17:59.619Z,7.23
2018-06-09T20:20:29.620Z,7.43
2018-06-09T20:23:00.461Z,11.43
2018-06-09T20:25:30.563Z,12.77
2018-06-09T20:28:00.298Z,14.73
2018-06-09T20:30:30.005Z,13.53
2018-06-09T20:32:59.919Z,12.17
2018-06-09T20:35:29.638Z,14.30
2018-06-09T20:37:59.205Z,15.17
2018-06-09T20:40:29.238Z,14.80
2018-06-09T20:42:58.898Z,13.57
2018-06-09T20:45:29.038Z,9.73
2018-06-09T20:47:58.938Z,11.67
2018-06-09T20:50:28.702Z,12.00
2018-06-09T20:52:58.738Z,12.53
2018-06-09T20:55:28.418Z,9.37
2018-06-09T20:57:58.058Z,8.30
2018-06-09T21:00:27.918Z,7.30
2018-06-09T21:02:57.658Z,7.80
2018-06-09T21:05:27.258Z,7.90
2018-06-09T21:07:56.997Z,8.13
2018-06-09T21:10:26.658Z,11.60
2018-06-09T21:12:56.358Z,10.90
2018-06-09T21:15:26.059Z,11.30
2018-06-09T21:17:55.799Z,13.80
2018-06-09T21:20:25.538Z,14.07
2018-06-09T21:22:54.958Z,12.83
2018-06-09T21:25:24.639Z,12.17
2018-06-09T21:27:59.458Z,12.53
2018-06-09T21:30:34.459Z,12.47
2018-06-09T21:33:09.578Z,13.30
2018-06-09T21:35:58.359Z,13.30
2018-06-09T21:38:28.558Z,12.17
2018-06-09T21:41:02.218Z,11.17
2018-06-09T21:43:37.218Z,11.33
2018-06-09T21:46:06.819Z,10.07
2018-06-09T21:48:36.258Z,11.53
2018-06-09T21:51:05.839Z,11.80
2018-06-09T21:53:35.439Z,9.03
2018-06-09T21:56:05.058Z,7.97
2018-06-09T21:58:34.719Z,10.67
2018-06-09T22:01:04.259Z,11.33
2018-06-09T22:03:33.839Z,11.97
2018-06-09T22:06:03.420Z,12.60
2018-06-09T22:08:33.160Z,13.37
2018-06-09T22:11:02.858Z,13.00
2018-06-09T22:13:32.516Z,12.53
2018-06-09T22:16:02.139Z,10.20
2018-06-09T22:18:31.838Z,11.00
2018-06-09T22:21:01.499Z,9.13
2018-06-09T22:23:31.008Z,10.53
2018-06-09T22:26:00.484Z,10.77
2018-06-09T22:28:30.038Z,12.40
2018-06-09T22:31:00.058Z,10.50
2018-06-09T22:33:29.738Z,12.07
2018-06-09T22:35:59.218Z,11.70
2018-06-09T22:38:28.738Z,10.83
2018-06-09T22:40:58.977Z,11.63
2018-06-09T22:43:28.958Z,12.20
2018-06-09T22:45:58.858Z,11.00
2018-06-09T22:48:28.337Z,11.50
2018-06-09T22:50:58.181Z,9.97
2018-06-09T22:53:28.578Z,9.50
2018-06-09T22:55:58.578Z,10.13
2018-06-09T22:58:28.019Z,10.30
2018-06-09T23:00:59.118Z,8.67
2018-06-09T23:03:28.799Z,10.57
2018-06-09T23:05:58.379Z,10.77
2018-06-09T23:08:27.978Z,10.50
2018-06-09T23:10:57.540Z,11.20
2018-06-09T23:13:27.719Z,9.97
2018-06-09T23:15:57.259Z,10.07
2018-06-09T23:18:26.738Z,11.00
2018-06-09T23:20:56.538Z,10.47
2018-06-09T23:23:26.379Z,7.80
2018-06-09T23:25:56.319Z,7.77
2018-06-09T23:28:25.498Z,8.50
2018-06-09T23:30:55.319Z,8.77
2018-06-09T23:33:24.678Z,8.87
2018-06-09T23:35:54.578Z,8.00
2018-06-09T23:38:24.598Z,8.63
2018-06-09T23:40:54.458Z,8.00
2018-06-09T23:43:24.004Z,8.10
2018-06-09T23:45:53.659Z,8.23
2018-06-09T23:48:23.158Z,8.10
2018-06-09T23:50:52.679Z,8.20
2018-06-09T23:53:22.318Z,8.13
2018-06-09T23:55:51.758Z,8.60
2018-06-09T23:58:21.338Z,8.60
